createdAt,value
2019-02-16T00:04:37.476Z,87.20
2019-02-16T00:09:42.595Z,77.13
2019-02-16T00:14:47.606Z,75.80
2019-02-16T00:19:52.682Z,65.70
2019-02-16T00:24:57.691Z,54.33
2019-02-16T00:30:02.710Z,55.17
2019-02-16T00:35:07.735Z,55.47
2019-02-16T00:40:12.781Z,55.97
2019-02-16T00:45:17.789Z,55.97
2019-02-16T00:50:22.837Z,56.80
2019-02-16T00:55:27.863Z,43.93
2019-02-16T01:00:32.876Z,46.13
2019-02-16T01:05:37.880Z,41.63
2019-02-16T01:10:44.776Z,37.27
2019-02-16T01:15:49.750Z,25.77
2019-02-16T01:20:54.814Z,21.43
2019-02-16T01:25:59.835Z,28.97
2019-02-16T01:31:04.841Z,43.30
2019-02-16T01:36:09.857Z,63.53
2019-02-16T01:41:14.876Z,61.63
2019-02-16T01:46:19.902Z,56.23
2019-02-16T01:51:31.643Z,33.83
2019-02-16T01:56:31.690Z,15.80
2019-02-16T02:01:36.757Z,13.73
2019-02-16T02:06:41.843Z,11.03
2019-02-16T02:11:46.860Z,12.67
2019-02-16T02:16:51.878Z,12.70
2019-02-16T02:21:56.884Z,13.07
2019-02-16T02:27:01.889Z,14.00
2019-02-16T02:32:06.928Z,17.27
2019-02-16T02:37:11.978Z,20.27
2019-02-16T02:42:17.028Z,25.17
2019-02-16T02:47:22.068Z,26.20
2019-02-16T02:52:27.079Z,31.63
2019-02-16T02:57:32.112Z,34.03
2019-02-16T03:02:37.153Z,37.57
2019-02-16T03:07:42.204Z,33.20
2019-02-16T03:12:47.209Z,33.13
2019-02-16T03:17:52.212Z,37.90
2019-02-16T03:23:17.132Z,37.57
2019-02-16T03:28:34.481Z,34.53
2019-02-16T03:33:50.581Z,35.13
2019-02-16T03:39:06.993Z,36.20
2019-02-16T03:44:12.060Z,35.43
2019-02-16T03:49:17.349Z,34.93
2019-02-16T03:54:22.366Z,33.47
2019-02-16T03:59:27.457Z,29.60
2019-02-16T04:04:32.476Z,29.10
2019-02-16T04:09:37.549Z,25.63
2019-02-16T04:14:42.586Z,25.30
2019-02-16T04:19:47.654Z,22.93
2019-02-16T04:24:54.541Z,21.13
2019-02-16T04:29:59.607Z,17.83
2019-02-16T04:35:04.756Z,15.33
2019-02-16T04:40:09.803Z,15.20
2019-02-16T04:45:14.887Z,14.97
2019-02-16T04:50:19.898Z,14.50
2019-02-16T04:55:24.961Z,13.57
2019-02-16T05:00:29.997Z,14.00
2019-02-16T05:05:35.021Z,14.73
2019-02-16T05:10:40.037Z,11.93
2019-02-16T05:15:45.050Z,12.00
2019-02-16T05:20:50.068Z,13.47
2019-02-16T05:25:55.174Z,14.30
2019-02-16T05:31:00.302Z,14.17
2019-02-16T05:36:05.318Z,14.33
2019-02-16T05:41:10.394Z,13.40
2019-02-16T05:46:15.404Z,15.30
2019-02-16T05:51:20.421Z,15.03
2019-02-16T05:56:25.452Z,18.00
2019-02-16T06:01:30.470Z,20.30
2019-02-16T06:06:35.474Z,21.90
2019-02-16T06:11:40.498Z,21.13
2019-02-16T06:16:45.509Z,24.80
2019-02-16T06:21:50.525Z,29.90
2019-02-16T06:26:55.521Z,30.93
2019-02-16T06:32:00.534Z,30.23
2019-02-16T06:37:21.354Z,29.50
2019-02-16T06:42:26.436Z,30.20
2019-02-16T06:47:31.461Z,27.90
2019-02-16T06:52:36.502Z,27.30
2019-02-16T06:57:45.034Z,27.23
2019-02-16T07:02:50.044Z,25.30
2019-02-16T07:07:55.052Z,27.47
2019-02-16T07:13:00.067Z,33.30
2019-02-16T07:18:36.265Z,32.13
2019-02-16T07:23:41.290Z,33.77
2019-02-16T07:28:46.313Z,35.93
2019-02-16T07:33:51.313Z,34.80
2019-02-16T07:38:56.324Z,36.73
2019-02-16T07:44:23.365Z,36.77
2019-02-16T07:49:34.877Z,34.23
2019-02-16T07:54:50.068Z,34.20
2019-02-16T08:00:08.632Z,36.17
2019-02-16T08:05:20.436Z,36.30
2019-02-16T08:10:47.421Z,33.73
2019-02-16T08:16:10.220Z,34.70
2019-02-16T08:21:22.311Z,38.03
2019-02-16T08:26:44.581Z,34.37
2019-02-16T08:31:59.155Z,30.47
2019-02-16T08:37:20.781Z,32.30
2019-02-16T08:42:47.963Z,27.90
2019-02-16T08:48:17.976Z,27.70
2019-02-16T08:53:53.952Z,27.13
2019-02-16T08:59:23.979Z,28.77
2019-02-16T09:04:38.481Z,29.20
2019-02-16T09:10:04.455Z,31.57
2019-02-16T09:15:34.266Z,31.10
2019-02-16T09:21:01.250Z,31.83
2019-02-16T09:26:27.974Z,30.47
2019-02-16T09:31:50.525Z,27.80
2019-02-16T09:37:13.140Z,27.63
2019-02-16T09:42:33.632Z,27.20
2019-02-16T09:47:46.683Z,26.33
2019-02-16T09:53:12.640Z,29.33
2019-02-16T09:58:33.029Z,28.63
2019-02-16T10:04:06.068Z,31.17
2019-02-16T10:09:28.602Z,29.87
2019-02-16T10:14:58.615Z,30.80
2019-02-16T10:20:14.342Z,32.07
2019-02-16T10:25:30.795Z,33.47
2019-02-16T10:30:43.196Z,32.13
2019-02-16T10:36:04.239Z,31.50
2019-02-16T10:41:20.030Z,29.33
2019-02-16T10:46:42.541Z,28.47
2019-02-16T10:52:13.037Z,27.67
2019-02-16T10:57:35.828Z,28.10
2019-02-16T11:02:58.300Z,30.27
2019-02-16T11:08:20.842Z,32.90
2019-02-16T11:13:57.069Z,30.90
2019-02-16T11:19:27.301Z,29.80
2019-02-16T11:24:51.273Z,29.70
2019-02-16T11:30:09.853Z,30.17
2019-02-16T11:35:40.429Z,29.13
2019-02-16T11:41:19.704Z,28.10
2019-02-16T11:46:45.497Z,27.63
2019-02-16T11:52:08.491Z,27.93
2019-02-16T11:57:32.445Z,28.20
2019-02-16T12:02:45.805Z,27.50
2019-02-16T12:08:05.602Z,28.03
2019-02-16T12:13:32.708Z,27.57
2019-02-16T12:19:02.597Z,27.63
2019-02-16T12:24:30.816Z,27.53
2019-02-16T12:29:47.845Z,26.03
2019-02-16T12:35:17.905Z,27.40
2019-02-16T12:40:30.817Z,26.33
2019-02-16T12:45:50.957Z,26.87
2019-02-16T12:51:26.266Z,25.93
2019-02-16T12:57:02.493Z,27.30
2019-02-16T13:02:30.577Z,30.37
2019-02-16T13:07:50.368Z,28.00
2019-02-16T13:13:14.334Z,29.33
2019-02-16T13:18:38.296Z,30.27
2019-02-16T13:23:54.578Z,28.70
2019-02-16T13:29:08.964Z,26.13
2019-02-16T13:34:19.495Z,27.03
2019-02-16T13:39:49.341Z,26.93
2019-02-16T13:45:28.249Z,29.30
2019-02-16T13:50:55.379Z,26.93
2019-02-16T13:56:09.770Z,33.60
2019-02-16T14:01:34.826Z,26.27
2019-02-16T14:06:51.136Z,30.83
2019-02-16T14:12:14.009Z,28.97
2019-02-16T14:17:40.750Z,25.27
2019-02-16T14:22:45.769Z,27.30
2019-02-16T14:27:50.772Z,26.63
2019-02-16T14:32:55.769Z,28.43
2019-02-16T14:38:22.497Z,30.63
2019-02-16T14:43:27.495Z,26.37
2019-02-16T14:48:32.528Z,27.13
2019-02-16T14:53:37.521Z,26.77
2019-02-16T14:58:44.855Z,27.53
2019-02-16T15:03:49.856Z,27.80
2019-02-16T15:08:54.871Z,27.07
2019-02-16T15:13:59.934Z,30.27
2019-02-16T15:19:04.927Z,26.43
2019-02-16T15:24:09.961Z,29.20
2019-02-16T15:29:15.173Z,26.13
2019-02-16T15:34:20.223Z,26.87
2019-02-16T15:39:25.805Z,28.90
2019-02-16T15:44:30.920Z,27.70
2019-02-16T15:49:36.053Z,29.03
2019-02-16T15:54:41.126Z,29.27
2019-02-16T15:59:46.416Z,31.20
2019-02-16T16:04:51.424Z,32.10
2019-02-16T16:10:15.491Z,33.10
2019-02-16T16:15:46.045Z,32.80
2019-02-16T16:21:02.008Z,35.93
2019-02-16T16:26:23.748Z,37.13
2019-02-16T16:31:33.424Z,37.93
2019-02-16T16:37:00.582Z,36.87
2019-02-16T16:42:18.544Z,35.90
2019-02-16T16:47:47.902Z,33.53
2019-02-16T16:53:19.368Z,35.60
2019-02-16T16:58:41.840Z,33.57
2019-02-16T17:04:05.770Z,33.67
2019-02-16T17:09:42.402Z,36.87
2019-02-16T17:15:09.256Z,39.20
2019-02-16T17:20:36.214Z,37.30
2019-02-16T17:25:56.716Z,39.93
2019-02-16T17:31:09.365Z,39.83
2019-02-16T17:36:31.903Z,44.20
2019-02-16T17:42:01.885Z,44.43
2019-02-16T17:47:28.932Z,50.17
2019-02-16T17:52:51.668Z,48.97
2019-02-16T17:58:04.429Z,48.43
2019-02-16T18:03:23.405Z,52.80
2019-02-16T18:08:46.635Z,52.67
2019-02-16T18:14:10.543Z,53.83
2019-02-16T18:19:29.806Z,56.23
2019-02-16T18:25:02.577Z,52.60
2019-02-16T18:30:19.024Z,54.53
2019-02-16T18:35:44.026Z,54.53
2019-02-16T18:41:05.139Z,53.47
2019-02-16T18:46:32.214Z,59.10
2019-02-16T18:51:53.853Z,59.47
2019-02-16T18:57:17.117Z,57.00
2019-02-16T19:02:38.100Z,61.23
2019-02-16T19:08:04.795Z,61.17
2019-02-16T19:13:37.937Z,59.07
2019-02-16T19:19:10.454Z,58.37
2019-02-16T19:24:31.070Z,63.57
2019-02-16T19:29:54.744Z,60.70
2019-02-16T19:35:17.277Z,67.00
2019-02-16T19:40:33.517Z,66.60
2019-02-16T19:45:56.217Z,64.73
2019-02-16T19:51:20.195Z,68.60
2019-02-16T19:56:29.531Z,64.43
2019-02-16T20:01:52.941Z,63.20
2019-02-16T20:07:11.193Z,69.00
2019-02-16T20:12:28.035Z,64.60
2019-02-16T20:17:58.023Z,60.93
2019-02-16T20:23:28.046Z,63.83
2019-02-16T20:28:48.919Z,60.77
2019-02-16T20:34:25.166Z,59.30
2019-02-16T20:39:49.116Z,61.40
2019-02-16T20:45:05.945Z,61.67
2019-02-16T20:50:28.752Z,61.27
2019-02-16T20:55:52.665Z,62.97
2019-02-16T21:01:15.092Z,65.43
2019-02-16T21:06:31.787Z,63.17
2019-02-16T21:11:56.822Z,66.47
2019-02-16T21:17:23.790Z,65.33
2019-02-16T21:22:50.517Z,64.43
2019-02-16T21:28:13.107Z,67.63
2019-02-16T21:33:26.040Z,65.87
2019-02-16T21:38:45.635Z,65.00
2019-02-16T21:44:21.897Z,77.27
2019-02-16T21:49:44.868Z,83.40
2019-02-16T21:54:58.865Z,77.20
2019-02-16T22:00:29.243Z,67.77
2019-02-16T22:06:03.649Z,58.17
2019-02-16T22:11:25.441Z,53.03
2019-02-16T22:16:30.440Z,51.03
2019-02-16T22:21:35.449Z,50.30
2019-02-16T22:26:40.468Z,48.43
2019-02-16T22:31:45.490Z,50.33
2019-02-16T22:36:50.492Z,55.97
2019-02-16T22:41:55.554Z,52.30
2019-02-16T22:47:00.554Z,53.17
2019-02-16T22:52:05.586Z,58.33
2019-02-16T22:57:10.574Z,56.63
2019-02-16T23:02:16.350Z,60.50
2019-02-16T23:07:21.361Z,58.87
2019-02-16T23:12:26.357Z,59.90
2019-02-16T23:17:31.348Z,60.43
2019-02-16T23:22:36.331Z,65.63
2019-02-16T23:27:41.520Z,58.60
2019-02-16T23:32:46.513Z,55.60
2019-02-16T23:37:51.513Z,61.40
2019-02-16T23:42:56.531Z,57.67
2019-02-16T23:48:01.536Z,60.40
2019-02-16T23:53:06.703Z,53.90
2019-02-16T23:58:11.732Z,60.67
